Pierreville, Canada
Current Conditions -  °F | °C
As of 7:32 AM on Saturday 25 Oct 2014 (Local Time) from CYRQ Reporting Station
Moderate Fog Moderate Fog  
Wind Chill: 30°   Ceiling: 200
Heat Index: 30°   Visibility: 0.5mi
Dew Point: 30°   Wind: 2mph
Humidity: 100%   Direction: NA
Pressure: 29.71"   Gusts: NA
Location:  46.07°N, 72.8°W
Report Text: CYRQ 251132Z AUTO VRB02KT 1/2SM FZFG VV002 M01/M01 A2971 RMK SLP063
Loading
Personal Weather Stations






























Interactive Weather Map
Tropical Storm Tracking
New forecast layout! Learn more

10-Day Weather Forecast

Advertisements
Track Severe Weather on mobile